createdAt,value
2022-12-11T03:59:09.945Z,0.00
2022-12-11T04:00:10.008Z,0.00
2022-12-11T04:01:10.148Z,0.00
2022-12-11T04:02:10.295Z,0.00
2022-12-11T04:03:13.710Z,0.00
2022-12-11T04:04:10.549Z,0.00
2022-12-11T04:05:10.932Z,0.00
2022-12-11T04:06:10.815Z,0.00
2022-12-11T04:07:10.935Z,0.00
2022-12-11T04:08:11.123Z,0.00
2022-12-11T04:09:11.194Z,0.00
2022-12-11T04:10:11.325Z,0.00
2022-12-11T04:11:11.463Z,0.00
2022-12-11T04:12:11.562Z,0.00
2022-12-11T04:13:11.733Z,0.00
2022-12-11T04:14:11.833Z,0.00
2022-12-11T04:15:12.231Z,0.00
2022-12-11T04:16:12.143Z,0.00
2022-12-11T04:17:12.252Z,0.00
2022-12-11T04:18:12.371Z,0.00
2022-12-11T04:19:12.502Z,0.00
2022-12-11T04:20:12.597Z,0.00
2022-12-11T04:21:12.747Z,0.00
2022-12-11T04:22:12.901Z,0.00
2022-12-11T04:23:14.011Z,0.00
2022-12-11T04:24:13.191Z,0.00
2022-12-11T04:25:13.732Z,0.00
2022-12-11T04:26:13.501Z,0.00
2022-12-11T04:27:13.680Z,0.00
2022-12-11T04:28:13.759Z,0.00
2022-12-11T04:29:13.910Z,0.00
2022-12-11T04:30:15.032Z,0.00
2022-12-11T04:31:14.212Z,0.00
2022-12-11T04:32:14.299Z,0.00
2022-12-11T04:33:14.459Z,0.00
2022-12-11T04:34:14.609Z,0.00
2022-12-11T04:35:14.771Z,0.00
2022-12-11T04:36:14.896Z,0.00
2022-12-11T04:37:14.979Z,0.00
2022-12-11T04:38:15.129Z,0.00
2022-12-11T04:39:15.272Z,0.00
2022-12-11T04:40:15.413Z,0.00
2022-12-11T04:41:15.561Z,0.00
2022-12-11T04:42:15.688Z,0.00
2022-12-11T04:43:15.827Z,0.00
2022-12-11T04:44:16.049Z,0.00
2022-12-11T04:45:16.146Z,0.00
2022-12-11T04:46:16.359Z,0.00
2022-12-11T04:47:16.422Z,0.00
2022-12-11T04:48:16.557Z,0.00
2022-12-11T04:49:16.726Z,0.00
2022-12-11T04:50:16.817Z,0.00
2022-12-11T04:51:16.946Z,0.00
2022-12-11T04:52:17.086Z,0.00
2022-12-11T04:53:18.176Z,0.00
2022-12-11T04:54:17.367Z,0.00
2022-12-11T04:55:17.448Z,0.00
2022-12-11T04:56:17.606Z,0.00
2022-12-11T04:57:17.767Z,0.00
2022-12-11T04:58:18.458Z,0.00
2022-12-11T04:59:18.064Z,0.00
2022-12-11T05:00:18.204Z,0.00
2022-12-11T05:01:18.401Z,0.00
2022-12-11T05:02:18.472Z,0.00
2022-12-11T05:03:18.627Z,0.00
2022-12-11T05:04:18.718Z,0.00
2022-12-11T05:05:18.854Z,0.00
2022-12-11T05:06:18.994Z,0.00
2022-12-11T05:07:19.153Z,0.00
2022-12-11T05:08:19.331Z,0.00
2022-12-11T05:09:19.397Z,0.00
2022-12-11T05:10:19.533Z,0.00
2022-12-11T05:11:19.675Z,0.00
2022-12-11T05:12:19.783Z,0.00
2022-12-11T05:13:19.946Z,0.00
2022-12-11T05:14:20.068Z,0.00
2022-12-11T05:15:20.186Z,0.00
2022-12-11T05:16:20.378Z,0.00
2022-12-11T05:17:20.442Z,0.00
2022-12-11T05:18:20.641Z,0.00
2022-12-11T05:19:20.752Z,0.00
2022-12-11T05:20:20.812Z,0.00
2022-12-11T05:21:20.981Z,0.00
2022-12-11T05:22:21.111Z,0.00
2022-12-11T05:23:21.291Z,0.00
2022-12-11T05:24:21.377Z,0.00
2022-12-11T05:25:21.501Z,0.00
2022-12-11T05:26:21.641Z,0.00
2022-12-11T05:27:21.781Z,0.00
2022-12-11T05:28:23.889Z,0.00
2022-12-11T05:29:22.031Z,0.00
2022-12-11T05:30:22.180Z,0.00
2022-12-11T05:31:22.389Z,0.00
2022-12-11T05:32:22.428Z,0.00
2022-12-11T05:33:22.599Z,0.00
2022-12-11T05:34:22.688Z,0.00
2022-12-11T05:35:22.807Z,0.00
2022-12-11T05:36:22.969Z,0.00
2022-12-11T05:37:23.139Z,0.00
2022-12-11T05:38:23.228Z,0.00
2022-12-11T05:39:23.374Z,0.00
2022-12-11T05:40:23.504Z,0.00
2022-12-11T05:41:23.638Z,0.00
2022-12-11T05:42:28.584Z,0.00
2022-12-11T05:43:24.907Z,0.00
2022-12-11T05:44:24.052Z,0.00
2022-12-11T05:45:24.207Z,0.00
2022-12-11T05:46:24.383Z,0.00
2022-12-11T05:47:24.509Z,0.00
2022-12-11T05:48:24.650Z,0.00
2022-12-11T05:49:30.641Z,0.00
2022-12-11T05:50:25.968Z,0.00
2022-12-11T05:51:25.086Z,0.00
2022-12-11T05:52:25.226Z,0.00
2022-12-11T05:53:25.362Z,0.00
2022-12-11T05:54:25.504Z,0.00
2022-12-11T05:55:25.636Z,0.00
2022-12-11T05:56:25.786Z,0.00
2022-12-11T05:57:25.917Z,0.00
2022-12-11T05:58:26.080Z,0.00
2022-12-11T05:59:26.216Z,0.00
2022-12-11T06:00:28.470Z,0.00
2022-12-11T06:01:27.509Z,0.00
2022-12-11T06:02:26.805Z,0.00
2022-12-11T06:03:26.796Z,0.00
2022-12-11T06:04:26.943Z,0.00
2022-12-11T06:05:27.075Z,0.00
2022-12-11T06:06:27.213Z,0.00
2022-12-11T06:07:27.355Z,0.00
2022-12-11T06:08:27.549Z,0.00
2022-12-11T06:09:27.625Z,0.00
2022-12-11T06:10:27.783Z,0.00
2022-12-11T06:11:27.924Z,0.00
2022-12-11T06:12:28.053Z,0.00
2022-12-11T06:13:28.184Z,0.00
2022-12-11T06:14:28.323Z,0.00
2022-12-11T06:15:28.467Z,0.00
2022-12-11T06:16:28.641Z,0.00
2022-12-11T06:17:28.724Z,0.00
2022-12-11T06:18:28.883Z,0.00
2022-12-11T06:19:33.465Z,0.00
2022-12-11T06:20:30.172Z,0.00
2022-12-11T06:21:29.284Z,0.00
2022-12-11T06:22:29.461Z,0.00
2022-12-11T06:23:29.532Z,0.00
2022-12-11T06:24:29.684Z,0.00
2022-12-11T06:25:29.825Z,0.00
2022-12-11T06:26:29.972Z,0.00
2022-12-11T06:27:30.102Z,0.00
2022-12-11T06:28:30.249Z,0.00
2022-12-11T06:29:30.381Z,0.00
2022-12-11T06:30:38.382Z,0.00
2022-12-11T06:31:31.704Z,0.00
2022-12-11T06:32:30.780Z,0.00
2022-12-11T06:33:30.920Z,0.00
2022-12-11T06:34:31.101Z,0.00
2022-12-11T06:35:31.232Z,0.00
2022-12-11T06:36:31.370Z,0.00
2022-12-11T06:37:31.510Z,0.00
2022-12-11T06:38:31.659Z,0.00
2022-12-11T06:39:31.790Z,0.00
2022-12-11T06:40:31.959Z,0.00
2022-12-11T06:41:32.089Z,0.00
2022-12-11T06:42:32.239Z,0.00
2022-12-11T06:43:32.387Z,0.00
2022-12-11T06:44:32.509Z,0.00
2022-12-11T06:45:32.714Z,0.00
2022-12-11T06:46:32.768Z,0.00
2022-12-11T06:47:32.916Z,0.00
2022-12-11T06:48:33.061Z,0.00
2022-12-11T06:49:33.192Z,0.00
2022-12-11T06:50:33.354Z,0.00
2022-12-11T06:51:33.489Z,0.00
2022-12-11T06:52:33.638Z,0.00
2022-12-11T06:53:33.800Z,0.00
2022-12-11T06:54:33.937Z,0.00
2022-12-11T06:55:34.067Z,0.00
2022-12-11T06:56:34.227Z,0.00
2022-12-11T06:57:34.367Z,0.00
2022-12-11T06:58:34.518Z,0.00
2022-12-11T06:59:34.655Z,0.00
2022-12-11T07:00:34.869Z,0.00
2022-12-11T07:01:34.916Z,0.00
2022-12-11T07:02:35.080Z,0.00
2022-12-11T07:03:35.227Z,0.00
2022-12-11T07:04:35.384Z,0.00
2022-12-11T07:05:35.465Z,0.00
2022-12-11T07:06:35.665Z,0.00
2022-12-11T07:07:35.785Z,0.00
2022-12-11T07:08:35.894Z,0.00
2022-12-11T07:09:35.995Z,0.00
2022-12-11T07:10:36.236Z,0.00
2022-12-11T07:11:36.308Z,0.00
2022-12-11T07:12:36.397Z,0.00
2022-12-11T07:13:36.535Z,0.00
2022-12-11T07:14:36.633Z,1.00
2022-12-11T07:15:40.497Z,1.00
2022-12-11T07:16:36.897Z,1.00
2022-12-11T07:17:36.996Z,1.00
2022-12-11T07:18:37.099Z,2.00
2022-12-11T07:19:37.296Z,0.00
2022-12-11T07:20:37.385Z,2.00
2022-12-11T07:21:37.473Z,2.00
2022-12-11T07:22:43.099Z,2.00
2022-12-11T07:23:38.752Z,2.00
2022-12-11T07:24:37.904Z,3.00
2022-12-11T07:25:38.022Z,3.00
2022-12-11T07:26:38.165Z,3.00
2022-12-11T07:27:38.347Z,3.00
2022-12-11T07:28:38.450Z,3.00
2022-12-11T07:29:38.521Z,3.00
2022-12-11T07:30:38.692Z,3.00
2022-12-11T07:31:38.891Z,3.00
2022-12-11T07:32:39.051Z,5.00
2022-12-11T07:33:39.100Z,5.00
2022-12-11T07:34:39.252Z,6.00
2022-12-11T07:35:39.361Z,5.00
2022-12-11T07:36:39.521Z,5.00
2022-12-11T07:37:39.681Z,5.00
2022-12-11T07:38:39.830Z,5.00
2022-12-11T07:39:39.971Z,5.00
2022-12-11T07:40:40.136Z,6.00
2022-12-11T07:41:40.229Z,7.00
2022-12-11T07:42:45.941Z,7.00
2022-12-11T07:43:41.564Z,7.00
2022-12-11T07:44:40.642Z,5.00
2022-12-11T07:45:40.822Z,7.00
2022-12-11T07:46:40.919Z,9.00
2022-12-11T07:47:41.078Z,9.00
2022-12-11T07:48:41.180Z,10.00
2022-12-11T07:49:41.339Z,8.00
2022-12-11T07:50:41.469Z,10.00
2022-12-11T07:51:41.571Z,10.00
2022-12-11T07:52:41.681Z,9.00
2022-12-11T07:53:41.828Z,8.00
2022-12-11T07:54:41.954Z,9.00
2022-12-11T07:55:42.046Z,9.00
2022-12-11T07:56:43.958Z,9.00
2022-12-11T07:57:42.368Z,9.00
2022-12-11T07:58:42.468Z,10.00
2022-12-11T07:59:42.676Z,10.00
2022-12-11T08:00:42.796Z,10.00
2022-12-11T08:01:42.839Z,12.00
2022-12-11T08:02:43.139Z,12.00
2022-12-11T08:03:43.152Z,14.00
2022-12-11T08:04:43.317Z,14.00
2022-12-11T08:05:43.445Z,14.00
2022-12-11T08:06:43.540Z,16.00
2022-12-11T08:07:43.680Z,15.00
2022-12-11T08:08:44.145Z,17.00
2022-12-11T08:09:43.881Z,17.00
2022-12-11T08:10:44.047Z,17.00
2022-12-11T08:11:44.177Z,18.00
2022-12-11T08:12:44.314Z,19.00
2022-12-11T08:13:44.419Z,22.00
2022-12-11T08:14:44.603Z,20.00
2022-12-11T08:15:44.733Z,20.00
2022-12-11T08:16:44.906Z,22.00
2022-12-11T08:17:44.973Z,22.00
2022-12-11T08:18:45.144Z,22.00
2022-12-11T08:19:45.263Z,20.00
2022-12-11T08:20:45.383Z,25.00
2022-12-11T08:21:45.483Z,25.00
2022-12-11T08:22:45.653Z,22.00
2022-12-11T08:23:45.757Z,25.00
2022-12-11T08:24:45.863Z,25.00
2022-12-11T08:25:46.049Z,25.00
2022-12-11T08:26:46.151Z,25.00
2022-12-11T08:27:46.262Z,25.00
2022-12-11T08:28:46.374Z,20.00
2022-12-11T08:29:46.482Z,27.00
2022-12-11T08:30:46.665Z,29.00
2022-12-11T08:31:46.752Z,28.00
2022-12-11T08:32:46.912Z,29.00
2022-12-11T08:33:47.080Z,36.00
2022-12-11T08:34:47.202Z,35.00
2022-12-11T08:35:47.434Z,37.00
2022-12-11T08:36:47.461Z,35.00
2022-12-11T08:37:47.532Z,35.00
2022-12-11T08:38:47.690Z,34.00
2022-12-11T08:39:47.841Z,34.00
2022-12-11T08:40:48.020Z,37.00
2022-12-11T08:41:48.131Z,35.00
2022-12-11T08:42:48.240Z,37.00
2022-12-11T08:43:48.385Z,37.00
2022-12-11T08:44:48.482Z,41.00
2022-12-11T08:45:48.647Z,40.00
2022-12-11T08:46:48.725Z,41.00
2022-12-11T08:47:48.891Z,39.00
2022-12-11T08:48:49.029Z,35.00
2022-12-11T08:49:49.151Z,38.00
2022-12-11T08:50:49.319Z,37.00
2022-12-11T08:51:49.488Z,36.00
2022-12-11T08:52:49.639Z,36.00
2022-12-11T08:53:49.810Z,38.00
2022-12-11T08:54:49.908Z,35.00
2022-12-11T08:55:50.010Z,35.00
2022-12-11T08:56:54.793Z,42.00
2022-12-11T08:57:52.247Z,42.00
2022-12-11T08:58:50.407Z,37.00
2022-12-11T08:59:50.589Z,42.00
2022-12-11T09:00:50.678Z,42.00
2022-12-11T09:01:50.904Z,42.00
2022-12-11T09:02:50.979Z,42.00
2022-12-11T09:03:54.988Z,44.00
2022-12-11T09:04:51.207Z,43.00
2022-12-11T09:05:51.366Z,42.00
2022-12-11T09:06:51.538Z,42.00
2022-12-11T09:07:51.692Z,42.00
2022-12-11T09:08:52.976Z,37.00
2022-12-11T09:09:51.917Z,39.00
2022-12-11T09:10:52.967Z,35.00
2022-12-11T09:11:52.137Z,41.00
2022-12-11T09:12:52.247Z,40.00
2022-12-11T09:13:52.405Z,50.00
2022-12-11T09:14:52.495Z,49.00
2022-12-11T09:15:52.694Z,51.00
2022-12-11T09:16:52.784Z,51.00
2022-12-11T09:17:52.917Z,52.00
2022-12-11T09:18:53.045Z,51.00
2022-12-11T09:19:53.175Z,54.00
2022-12-11T09:20:53.283Z,57.00
2022-12-11T09:21:53.447Z,57.00
2022-12-11T09:22:53.606Z,56.00
2022-12-11T09:23:53.763Z,57.00
2022-12-11T09:24:53.883Z,46.00
2022-12-11T09:25:54.024Z,49.00
2022-12-11T09:26:54.143Z,51.00
2022-12-11T09:27:54.294Z,53.00
2022-12-11T09:28:54.425Z,50.00
2022-12-11T09:29:54.532Z,43.00
2022-12-11T09:30:54.670Z,46.00
2022-12-11T09:31:54.752Z,47.00
2022-12-11T09:32:54.843Z,46.00
2022-12-11T09:33:55.020Z,51.00
2022-12-11T09:34:55.122Z,57.00
2022-12-11T09:35:55.383Z,53.00
2022-12-11T09:36:55.332Z,50.00
2022-12-11T09:37:55.488Z,49.00
2022-12-11T09:38:55.591Z,51.00
2022-12-11T09:39:55.789Z,50.00
2022-12-11T09:40:55.882Z,47.00
2022-12-11T09:41:56.060Z,49.00
2022-12-11T09:42:56.173Z,49.00
2022-12-11T09:43:56.331Z,47.00
2022-12-11T09:44:56.484Z,44.00
2022-12-11T09:45:56.688Z,49.00
2022-12-11T09:46:56.750Z,47.00
2022-12-11T09:47:56.855Z,54.00
2022-12-11T09:48:56.984Z,57.00
2022-12-11T09:49:57.097Z,57.00
2022-12-11T09:50:57.189Z,51.00
2022-12-11T09:51:57.348Z,51.00
2022-12-11T09:52:57.440Z,51.00
2022-12-11T09:53:57.609Z,50.00
2022-12-11T09:54:57.718Z,49.00
2022-12-11T09:55:57.963Z,51.00
2022-12-11T09:56:58.049Z,51.00
2022-12-11T09:57:58.159Z,51.00
2022-12-11T09:58:58.308Z,50.00
2022-12-11T10:00:04.474Z,51.00
2022-12-11T10:00:59.617Z,53.00
2022-12-11T10:01:58.759Z,57.00
2022-12-11T10:13:18.132Z,54.00
2022-12-11T10:14:18.254Z,58.00
2022-12-11T10:15:18.375Z,57.00
2022-12-11T10:16:18.551Z,58.00
2022-12-11T10:17:18.582Z,65.00
2022-12-11T10:18:18.775Z,69.00
2022-12-11T10:19:18.993Z,71.00
2022-12-11T10:20:18.994Z,74.00
2022-12-11T10:21:19.173Z,69.00
2022-12-11T10:22:19.271Z,69.00
2022-12-11T10:23:19.413Z,69.00
2022-12-11T10:24:40.770Z,67.00
2022-12-11T10:25:20.730Z,67.00
2022-12-11T10:26:19.832Z,72.00
2022-12-11T10:27:19.928Z,77.00
2022-12-11T10:28:20.094Z,78.00
2022-12-11T10:29:20.211Z,78.00
2022-12-11T10:30:20.329Z,71.00
2022-12-11T10:31:20.472Z,70.00
2022-12-11T10:32:20.561Z,71.00
2022-12-11T10:33:20.672Z,73.00
2022-12-11T10:34:20.858Z,73.00
2022-12-11T10:35:20.969Z,71.00
2022-12-11T10:36:21.068Z,77.00
2022-12-11T10:37:21.231Z,78.00
2022-12-11T10:38:21.419Z,78.00
2022-12-11T10:39:21.540Z,76.00
2022-12-11T10:40:21.697Z,71.00
2022-12-11T10:41:21.848Z,71.00
2022-12-11T10:42:21.959Z,74.00
2022-12-11T10:43:22.137Z,77.00
2022-12-11T10:44:22.247Z,81.00
2022-12-11T10:45:22.337Z,81.00
2022-12-11T10:46:22.544Z,81.00
2022-12-11T10:47:22.636Z,82.00
2022-12-11T10:48:22.798Z,81.00
2022-12-11T10:49:22.958Z,81.00
2022-12-11T10:50:23.107Z,79.00
2022-12-11T10:51:23.237Z,71.00
2022-12-11T10:52:23.308Z,70.00
2022-12-11T10:53:23.478Z,73.00
2022-12-11T10:54:23.598Z,75.00
2022-12-11T10:55:23.778Z,72.00
2022-12-11T10:56:23.856Z,69.00
2022-12-11T10:57:23.985Z,76.00
2022-12-11T10:58:25.045Z,70.00
2022-12-11T10:59:24.375Z,70.00
2022-12-11T11:00:24.328Z,64.00
2022-12-11T11:01:24.527Z,66.00
2022-12-11T11:02:24.733Z,66.00
2022-12-11T11:03:24.753Z,69.00
2022-12-11T11:04:24.935Z,69.00
2022-12-11T11:05:25.065Z,68.00
2022-12-11T11:06:25.174Z,60.00
2022-12-11T11:07:25.275Z,59.00
2022-12-11T11:08:25.488Z,59.00
2022-12-11T11:09:25.534Z,59.00
2022-12-11T11:10:25.717Z,59.00
2022-12-11T11:11:25.803Z,58.00
2022-12-11T11:12:25.983Z,56.00
2022-12-11T11:13:26.073Z,64.00
2022-12-11T11:14:26.263Z,66.00
2022-12-11T11:15:26.385Z,62.00
2022-12-11T11:16:26.533Z,61.00
2022-12-11T11:17:29.546Z,60.00
2022-12-11T11:18:27.765Z,59.00
2022-12-11T11:19:26.913Z,60.00
2022-12-11T11:20:27.023Z,56.00
2022-12-11T11:21:27.121Z,62.00
2022-12-11T11:22:27.287Z,62.00
2022-12-11T11:23:27.484Z,56.00
2022-12-11T11:24:27.605Z,60.00
2022-12-11T11:25:27.778Z,58.00
2022-12-11T11:26:43.566Z,58.00
2022-12-11T11:27:29.023Z,58.00
2022-12-11T11:28:29.081Z,56.00
2022-12-11T11:29:28.241Z,62.00
2022-12-11T11:30:28.345Z,61.00
2022-12-11T11:31:28.572Z,61.00
2022-12-11T11:32:28.619Z,61.00
2022-12-11T11:33:28.730Z,62.00
2022-12-11T11:34:28.870Z,63.00
2022-12-11T11:35:29.022Z,60.00
2022-12-11T11:36:29.179Z,60.00
2022-12-11T11:37:29.350Z,58.00
2022-12-11T11:38:29.572Z,60.00
2022-12-11T11:39:29.631Z,57.00
2022-12-11T11:40:29.782Z,55.00
2022-12-11T11:41:29.939Z,51.00
2022-12-11T11:42:30.109Z,51.00
2022-12-11T11:43:30.285Z,53.00
2022-12-11T11:44:30.379Z,53.00
2022-12-11T11:45:30.528Z,53.00
2022-12-11T11:46:30.747Z,53.00
2022-12-11T11:47:30.798Z,53.00
2022-12-11T11:48:30.906Z,53.00
2022-12-11T11:49:31.067Z,51.00
2022-12-11T11:50:31.169Z,50.00
2022-12-11T11:51:31.329Z,50.00
2022-12-11T11:52:31.477Z,46.00
2022-12-11T11:53:31.607Z,46.00
2022-12-11T11:54:31.707Z,44.00
2022-12-11T11:55:31.807Z,46.00
2022-12-11T11:56:31.916Z,45.00
2022-12-11T11:57:32.065Z,51.00
2022-12-11T11:58:32.190Z,50.00
2022-12-11T11:59:32.347Z,50.00
2022-12-11T12:00:34.116Z,52.00
2022-12-11T12:01:32.611Z,51.00
2022-12-11T12:02:32.818Z,52.00
2022-12-11T12:03:32.835Z,49.00
2022-12-11T12:04:32.937Z,53.00
2022-12-11T12:05:33.085Z,55.00
2022-12-11T12:06:33.236Z,57.00
2022-12-11T12:07:33.404Z,57.00
2022-12-11T12:08:33.504Z,57.00
2022-12-11T12:09:33.742Z,54.00
2022-12-11T12:10:34.857Z,53.00
2022-12-11T12:11:33.926Z,55.00
2022-12-11T12:12:34.415Z,55.00
2022-12-11T12:13:50.497Z,54.00
2022-12-11T12:14:52.325Z,54.00
2022-12-11T12:15:35.511Z,54.00
2022-12-11T12:17:35.760Z,55.00
2022-12-11T12:18:34.822Z,60.00
2022-12-11T12:19:34.932Z,56.00
2022-12-11T12:20:35.024Z,58.00
2022-12-11T12:21:35.187Z,60.00
2022-12-11T12:22:35.372Z,60.00
2022-12-11T12:23:37.088Z,58.00
2022-12-11T12:24:35.613Z,59.00
2022-12-11T12:25:35.800Z,59.00
2022-12-11T12:26:35.890Z,60.00
2022-12-11T12:27:52.724Z,59.00
2022-12-11T12:28:37.219Z,59.00
2022-12-11T12:29:36.361Z,62.00
2022-12-11T12:30:36.481Z,60.00
2022-12-11T12:31:36.605Z,62.00
2022-12-11T12:32:36.760Z,69.00
2022-12-11T12:33:36.871Z,67.00
2022-12-11T12:34:36.970Z,61.00
2022-12-11T12:35:37.131Z,59.00
2022-12-11T12:36:37.309Z,59.00
2022-12-11T12:37:37.446Z,59.00
2022-12-11T12:38:38.483Z,60.00
2022-12-11T12:39:37.640Z,58.00
2022-12-11T12:40:37.810Z,59.00
2022-12-11T12:41:37.969Z,57.00
2022-12-11T12:42:38.070Z,58.00
2022-12-11T12:43:38.273Z,57.00
2022-12-11T12:44:38.328Z,51.00
2022-12-11T12:45:39.415Z,51.00
2022-12-11T12:46:38.608Z,57.00
2022-12-11T12:47:38.708Z,54.00
2022-12-11T12:48:39.808Z,55.00
2022-12-11T12:49:38.977Z,57.00
2022-12-11T12:50:39.159Z,56.00
2022-12-11T12:51:39.276Z,54.00
2022-12-11T12:52:39.412Z,55.00
2022-12-11T12:53:39.536Z,57.00
2022-12-11T12:54:39.738Z,51.00
2022-12-11T12:55:39.775Z,53.00
2022-12-11T12:56:39.927Z,50.00
2022-12-11T12:57:40.088Z,51.00
2022-12-11T12:58:40.258Z,46.00
2022-12-11T12:59:40.356Z,47.00
2022-12-11T13:00:40.576Z,45.00
2022-12-11T13:01:40.618Z,43.00
2022-12-11T13:02:41.720Z,43.00
2022-12-11T13:03:40.896Z,44.00
2022-12-11T13:04:56.114Z,49.00
2022-12-11T13:05:42.187Z,49.00
2022-12-11T13:06:41.375Z,48.00
2022-12-11T13:07:41.442Z,50.00
2022-12-11T13:08:41.654Z,50.00
2022-12-11T13:09:41.716Z,50.00
2022-12-11T13:10:41.888Z,50.00
2022-12-11T13:11:42.085Z,51.00
2022-12-11T13:12:42.205Z,44.00
2022-12-11T13:13:42.368Z,44.00
2022-12-11T13:14:42.463Z,42.00
2022-12-11T13:15:42.657Z,42.00
2022-12-11T13:16:42.844Z,44.00
2022-12-11T13:17:42.956Z,40.00
2022-12-11T13:18:43.134Z,40.00
2022-12-11T13:19:43.234Z,40.00
2022-12-11T13:20:43.346Z,40.00
2022-12-11T13:21:43.461Z,39.00
2022-12-11T13:22:43.561Z,39.00
2022-12-11T13:23:43.672Z,37.00
2022-12-11T13:24:43.781Z,35.00
2022-12-11T13:25:43.932Z,35.00
2022-12-11T13:26:44.102Z,35.00
2022-12-11T13:27:44.244Z,37.00
2022-12-11T13:28:44.371Z,39.00
2022-12-11T13:29:44.480Z,42.00
2022-12-11T13:30:44.574Z,47.00
2022-12-11T13:31:44.717Z,54.00
2022-12-11T13:32:44.797Z,55.00
2022-12-11T13:33:44.941Z,62.00
2022-12-11T13:34:45.093Z,64.00
2022-12-11T13:35:45.290Z,67.00
2022-12-11T13:36:45.385Z,68.00
2022-12-11T13:37:45.549Z,68.00
2022-12-11T13:38:45.760Z,68.00
2022-12-11T13:39:45.888Z,67.00
2022-12-11T13:40:46.003Z,72.00
2022-12-11T13:41:46.098Z,68.00
2022-12-11T13:42:46.280Z,69.00
2022-12-11T13:43:46.391Z,69.00
2022-12-11T13:44:46.470Z,68.00
2022-12-11T13:45:46.773Z,66.00
2022-12-11T13:46:46.732Z,66.00
2022-12-11T13:47:46.891Z,60.00
2022-12-11T13:48:47.068Z,56.00
2022-12-11T13:49:47.169Z,49.00
2022-12-11T13:50:47.263Z,51.00
2022-12-11T13:51:47.478Z,52.00
2022-12-11T13:52:47.548Z,44.00
2022-12-11T13:53:47.647Z,48.00
2022-12-11T13:54:47.826Z,43.00
2022-12-11T13:55:47.926Z,42.00
2022-12-11T13:56:48.018Z,46.00
2022-12-11T13:57:48.187Z,49.00
2022-12-11T13:58:48.298Z,49.00
2022-12-11T13:59:48.396Z,50.00
2022-12-11T14:00:48.604Z,46.00
2022-12-11T14:01:48.751Z,45.00
2022-12-11T14:02:48.848Z,43.00
2022-12-11T14:03:48.938Z,43.00
2022-12-11T14:04:49.099Z,45.00
2022-12-11T14:05:49.307Z,44.00
2022-12-11T14:06:49.425Z,42.00
2022-12-11T14:07:49.665Z,39.00
2022-12-11T14:08:49.726Z,37.00
2022-12-11T14:09:49.818Z,36.00
2022-12-11T14:10:50.003Z,31.00
2022-12-11T14:11:56.462Z,27.00
2022-12-11T14:12:51.277Z,23.00
2022-12-11T14:13:50.355Z,20.00
2022-12-11T14:14:50.534Z,20.00
2022-12-11T14:15:50.678Z,23.00
2022-12-11T14:16:50.802Z,27.00
2022-12-11T14:17:52.083Z,29.00
2022-12-11T14:18:51.044Z,45.00
2022-12-11T14:19:51.175Z,52.00
2022-12-11T14:20:51.283Z,48.00
2022-12-11T14:21:51.383Z,45.00
2022-12-11T14:22:51.504Z,42.00
2022-12-11T14:23:51.600Z,36.00
2022-12-11T14:24:51.753Z,33.00
2022-12-11T14:25:51.916Z,33.00
2022-12-11T14:26:52.084Z,29.00
2022-12-11T14:27:52.227Z,28.00
2022-12-11T14:28:52.303Z,27.00
2022-12-11T14:29:52.402Z,25.00
2022-12-11T14:30:52.523Z,26.00
2022-12-11T14:31:52.645Z,28.00
2022-12-11T14:32:52.780Z,27.00
2022-12-11T14:33:52.874Z,27.00
2022-12-11T14:34:53.074Z,24.00
2022-12-11T14:35:53.220Z,22.00
2022-12-11T14:36:53.339Z,22.00
2022-12-11T14:37:53.461Z,22.00
2022-12-11T14:38:53.579Z,24.00
2022-12-11T14:39:53.700Z,26.00
2022-12-11T14:40:53.800Z,24.00
2022-12-11T14:41:53.998Z,22.00
2022-12-11T14:42:59.855Z,22.00
2022-12-11T14:43:55.262Z,20.00
2022-12-11T14:44:54.379Z,19.00
2022-12-11T14:45:54.570Z,18.00
2022-12-11T14:46:54.699Z,18.00
2022-12-11T14:47:54.849Z,17.00
2022-12-11T14:49:00.583Z,15.00
2022-12-11T14:49:56.110Z,14.00
2022-12-11T14:50:55.273Z,14.00
2022-12-11T14:51:55.381Z,14.00
2022-12-11T14:52:55.489Z,13.00
2022-12-11T14:53:55.577Z,11.00
2022-12-11T14:54:55.737Z,10.00
2022-12-11T14:55:55.902Z,9.00
2022-12-11T14:56:56.028Z,7.00
2022-12-11T14:57:56.108Z,7.00
2022-12-11T14:58:56.285Z,5.00
2022-12-11T14:59:56.379Z,5.00
2022-12-11T15:00:56.608Z,5.00
2022-12-11T15:01:56.739Z,7.00
2022-12-11T15:02:56.805Z,7.00
2022-12-11T15:03:56.907Z,7.00
2022-12-11T15:04:57.058Z,7.00
2022-12-11T15:05:57.217Z,7.00
2022-12-11T15:06:57.319Z,7.00
2022-12-11T15:07:57.455Z,7.00
2022-12-11T15:08:57.548Z,7.00
2022-12-11T15:09:57.656Z,7.00
2022-12-11T15:10:57.765Z,7.00
2022-12-11T15:11:57.866Z,7.00
2022-12-11T15:12:58.046Z,7.00
2022-12-11T15:13:58.153Z,4.00
2022-12-11T15:14:58.305Z,5.00
2022-12-11T15:15:58.495Z,3.00
2022-12-11T15:16:58.744Z,3.00
2022-12-11T15:17:58.778Z,1.00
2022-12-11T15:18:59.019Z,1.00
2022-12-11T15:19:59.058Z,1.00
2022-12-11T15:20:59.274Z,3.00
2022-12-11T15:21:59.332Z,2.00
2022-12-11T15:22:59.490Z,2.00
2022-12-11T15:23:59.657Z,2.00
2022-12-11T15:24:59.866Z,0.00
2022-12-11T15:25:59.929Z,2.00
2022-12-11T15:27:00.020Z,2.00
2022-12-11T15:28:00.183Z,2.00
2022-12-11T15:29:00.287Z,1.00
2022-12-11T15:30:00.393Z,1.00
2022-12-11T15:31:00.571Z,1.00
2022-12-11T15:32:00.663Z,1.00
2022-12-11T15:33:00.872Z,0.00
2022-12-11T15:34:01.008Z,0.00
2022-12-11T15:35:01.133Z,0.00
2022-12-11T15:36:01.262Z,0.00
2022-12-11T15:37:01.425Z,0.00
2022-12-11T15:38:01.521Z,0.00
2022-12-11T15:39:01.662Z,0.00
2022-12-11T15:40:01.865Z,0.00
2022-12-11T15:41:01.945Z,0.00
2022-12-11T15:42:02.109Z,0.00
2022-12-11T15:43:02.202Z,0.00
2022-12-11T15:44:02.357Z,0.00
2022-12-11T15:45:02.494Z,0.00
2022-12-11T15:46:02.699Z,0.00
2022-12-11T15:47:02.761Z,0.00
2022-12-11T15:48:02.865Z,0.00
2022-12-11T15:49:03.004Z,0.00
2022-12-11T15:50:03.300Z,0.00
2022-12-11T15:51:04.241Z,0.00
2022-12-11T15:52:03.419Z,0.00
2022-12-11T15:53:03.555Z,0.00
2022-12-11T15:54:03.701Z,0.00
2022-12-11T15:55:03.829Z,0.00
2022-12-11T15:56:03.973Z,0.00
2022-12-11T15:57:04.121Z,0.00
2022-12-11T15:58:04.288Z,0.00
2022-12-11T15:59:04.368Z,0.00
2022-12-11T16:00:04.520Z,0.00
2022-12-11T16:01:04.712Z,0.00
2022-12-11T16:12:36.210Z,0.00
2022-12-11T16:13:36.300Z,0.00
2022-12-11T16:14:36.461Z,0.00
2022-12-11T16:15:36.618Z,0.00
2022-12-11T16:16:37.711Z,0.00
2022-12-11T16:17:36.891Z,0.00
2022-12-11T16:18:37.093Z,0.00
2022-12-11T16:19:37.191Z,0.00
2022-12-11T16:20:37.389Z,0.00
2022-12-11T16:21:37.486Z,0.00
2022-12-11T16:22:37.619Z,0.00
2022-12-11T16:23:37.788Z,0.00
2022-12-11T16:24:37.939Z,0.00
2022-12-11T16:25:38.088Z,0.00
2022-12-11T16:26:38.228Z,0.00
2022-12-11T16:27:38.371Z,0.00
2022-12-11T16:28:38.513Z,0.00
2022-12-11T16:29:38.658Z,0.00
2022-12-11T16:30:38.781Z,0.00
2022-12-11T16:31:38.928Z,0.00
2022-12-11T16:32:39.037Z,0.00
2022-12-11T16:33:39.116Z,0.00
2022-12-11T16:34:39.287Z,0.00
2022-12-11T16:35:39.362Z,0.00
2022-12-11T16:36:39.526Z,0.00
2022-12-11T16:37:39.668Z,0.00
2022-12-11T16:38:39.809Z,0.00
2022-12-11T16:39:39.956Z,0.00
2022-12-11T16:40:40.105Z,0.00
2022-12-11T16:41:40.256Z,0.00
2022-12-11T16:42:40.405Z,0.00
2022-12-11T16:43:40.577Z,0.00
2022-12-11T16:44:44.028Z,0.00
2022-12-11T16:45:40.869Z,0.00
2022-12-11T16:46:41.031Z,0.00
2022-12-11T16:47:41.165Z,0.00
2022-12-11T16:48:41.379Z,0.00
2022-12-11T16:49:41.445Z,0.00
2022-12-11T16:50:41.573Z,0.00
2022-12-11T16:51:41.738Z,0.00
2022-12-11T16:52:41.884Z,0.00
2022-12-11T16:53:42.023Z,0.00
2022-12-11T16:54:42.183Z,0.00
2022-12-11T16:55:42.298Z,0.00
2022-12-11T16:56:42.454Z,0.00
2022-12-11T16:57:42.603Z,0.00
2022-12-11T16:58:42.747Z,0.00
2022-12-11T16:59:42.882Z,0.00
2022-12-11T17:00:43.015Z,0.00
2022-12-11T17:01:43.217Z,0.00
2022-12-11T17:02:43.350Z,0.00
2022-12-11T17:03:43.464Z,0.00
2022-12-11T17:04:43.615Z,0.00
2022-12-11T17:05:43.765Z,0.00
2022-12-11T17:06:43.926Z,0.00
2022-12-11T17:07:44.154Z,0.00
2022-12-11T17:08:44.201Z,0.00
2022-12-11T17:09:44.281Z,0.00
2022-12-11T17:10:44.423Z,0.00
2022-12-11T17:11:44.560Z,0.00
2022-12-11T17:12:44.711Z,0.00
2022-12-11T17:13:44.850Z,0.00
2022-12-11T17:14:44.990Z,0.00
2022-12-11T17:15:45.176Z,0.00
2022-12-11T17:16:45.283Z,0.00
2022-12-11T17:17:45.429Z,0.00
2022-12-11T17:18:45.561Z,0.00
2022-12-11T17:19:45.729Z,0.00
2022-12-11T17:20:46.813Z,0.00
2022-12-11T17:21:51.269Z,0.00
2022-12-11T17:22:47.090Z,0.00
2022-12-11T17:23:46.191Z,0.00
2022-12-11T17:24:46.320Z,0.00
2022-12-11T17:25:46.460Z,0.00
2022-12-11T17:26:46.598Z,0.00